sensor_id;sensor_type;location;lat;lon;timestamp;P1;durP1;ratioP1;P2;durP2;ratioP2
59681;SDS011;45548;39.530;-9.118;2022-08-11T07:06:02;18.13;;;12.70;;
59681;SDS011;45548;39.530;-9.118;2022-08-11T07:14:44;16.98;;;12.02;;
59681;SDS011;45548;39.530;-9.118;2022-08-11T07:17:37;15.77;;;9.98;;
59681;SDS011;45548;39.530;-9.118;2022-08-11T07:20:35;15.07;;;9.32;;
59681;SDS011;45548;39.530;-9.118;2022-08-11T07:23:21;15.23;;;10.57;;
59681;SDS011;45548;39.530;-9.118;2022-08-11T07:26:07;15.75;;;9.68;;
59681;SDS011;45548;39.530;-9.118;2022-08-11T07:28:52;12.50;;;7.90;;
59681;SDS011;45548;39.530;-9.118;2022-08-11T07:31:20;14.45;;;9.52;;
59681;SDS011;45548;39.530;-9.118;2022-08-11T07:36:44;15.82;;;10.98;;
59681;SDS011;45548;39.530;-9.118;2022-08-11T07:39:15;15.18;;;10.50;;
59681;SDS011;45548;39.530;-9.118;2022-08-11T07:41:55;20.08;;;13.02;;
59681;SDS011;45548;39.530;-9.118;2022-08-11T07:44:23;21.13;;;14.95;;
59681;SDS011;45548;39.530;-9.118;2022-08-11T07:46:53;17.57;;;12.53;;
59681;SDS011;45548;39.530;-9.118;2022-08-11T07:49:38;17.83;;;12.52;;
59681;SDS011;45548;39.530;-9.118;2022-08-11T07:52:24;17.10;;;10.65;;
59681;SDS011;45548;39.530;-9.118;2022-08-11T07:55:02;15.95;;;11.80;;
59681;SDS011;45548;39.530;-9.118;2022-08-11T07:57:38;15.88;;;11.40;;
59681;SDS011;45548;39.530;-9.118;2022-08-11T08:00:23;14.80;;;9.75;;
59681;SDS011;45548;39.530;-9.118;2022-08-11T08:03:08;12.27;;;8.02;;
59681;SDS011;45548;39.530;-9.118;2022-08-11T08:05:52;15.57;;;10.63;;
59681;SDS011;45548;39.530;-9.118;2022-08-11T08:08:36;16.67;;;9.20;;
59681;SDS011;45548;39.530;-9.118;2022-08-11T08:11:23;11.70;;;7.60;;
59681;SDS011;45548;39.530;-9.118;2022-08-11T08:14:09;11.02;;;7.53;;
59681;SDS011;45548;39.530;-9.118;2022-08-11T08:16:55;10.68;;;8.05;;
59681;SDS011;45548;39.530;-9.118;2022-08-11T08:19:45;13.68;;;6.88;;
59681;SDS011;45548;39.530;-9.118;2022-08-11T08:22:15;14.80;;;7.47;;
59681;SDS011;45548;39.530;-9.118;2022-08-11T08:24:43;10.38;;;6.28;;
59681;SDS011;45548;39.530;-9.118;2022-08-11T08:27:12;11.25;;;6.35;;
59681;SDS011;45548;39.530;-9.118;2022-08-11T08:29:38;9.20;;;5.05;;
59681;SDS011;45548;39.530;-9.118;2022-08-11T08:32:24;14.75;;;6.50;;
59681;SDS011;45548;39.530;-9.118;2022-08-11T08:34:52;12.52;;;6.32;;
59681;SDS011;45548;39.530;-9.118;2022-08-11T08:37:22;12.52;;;6.63;;
59681;SDS011;45548;39.530;-9.118;2022-08-11T08:39:48;11.48;;;5.25;;
59681;SDS011;45548;39.530;-9.118;2022-08-11T08:42:19;13.95;;;5.00;;
59681;SDS011;45548;39.530;-9.118;2022-08-11T08:44:49;13.57;;;5.72;;
59681;SDS011;45548;39.530;-9.118;2022-08-11T08:47:17;12.13;;;5.60;;
59681;SDS011;45548;39.530;-9.118;2022-08-11T08:49:45;12.77;;;5.90;;
59681;SDS011;45548;39.530;-9.118;2022-08-11T08:52:18;12.05;;;7.00;;
59681;SDS011;45548;39.530;-9.118;2022-08-11T08:54:47;12.07;;;5.90;;
59681;SDS011;45548;39.530;-9.118;2022-08-11T08:59:46;11.93;;;5.75;;
59681;SDS011;45548;39.530;-9.118;2022-08-11T09:02:13;8.70;;;4.82;;
59681;SDS011;45548;39.530;-9.118;2022-08-11T09:04:42;10.15;;;5.22;;
59681;SDS011;45548;39.530;-9.118;2022-08-11T09:07:11;12.70;;;6.50;;
59681;SDS011;45548;39.530;-9.118;2022-08-11T09:09:49;11.18;;;4.75;;
59681;SDS011;45548;39.530;-9.118;2022-08-11T09:12:19;9.02;;;4.15;;
59681;SDS011;45548;39.530;-9.118;2022-08-11T09:14:46;11.48;;;5.47;;
59681;SDS011;45548;39.530;-9.118;2022-08-11T09:20:10;10.40;;;4.88;;
59681;SDS011;45548;39.530;-9.118;2022-08-11T09:22:40;11.95;;;5.15;;
59681;SDS011;45548;39.530;-9.118;2022-08-11T09:25:27;12.48;;;4.38;;
59681;SDS011;45548;39.530;-9.118;2022-08-11T09:28:14;9.93;;;4.43;;
59681;SDS011;45548;39.530;-9.118;2022-08-11T09:30:42;14.43;;;7.72;;
59681;SDS011;45548;39.530;-9.118;2022-08-11T09:33:13;8.95;;;6.38;;
59681;SDS011;45548;39.530;-9.118;2022-08-11T09:35:41;7.65;;;3.60;;
59681;SDS011;45548;39.530;-9.118;2022-08-11T09:38:09;9.13;;;4.95;;
59681;SDS011;45548;39.530;-9.118;2022-08-11T09:40:55;9.73;;;3.95;;
59681;SDS011;45548;39.530;-9.118;2022-08-11T09:43:22;11.10;;;5.50;;
59681;SDS011;45548;39.530;-9.118;2022-08-11T09:46:07;10.32;;;4.03;;
59681;SDS011;45548;39.530;-9.118;2022-08-11T09:48:35;10.35;;;5.43;;
59681;SDS011;45548;39.530;-9.118;2022-08-11T09:51:04;10.70;;;4.25;;
59681;SDS011;45548;39.530;-9.118;2022-08-11T09:53:32;11.68;;;6.78;;
59681;SDS011;45548;39.530;-9.118;2022-08-11T09:56:01;9.93;;;5.38;;
59681;SDS011;45548;39.530;-9.118;2022-08-11T09:58:50;9.20;;;4.10;;
59681;SDS011;45548;39.530;-9.118;2022-08-11T10:01:18;9.43;;;3.90;;
59681;SDS011;45548;39.530;-9.118;2022-08-11T10:03:57;11.10;;;5.55;;
59681;SDS011;45548;39.530;-9.118;2022-08-11T10:06:44;10.25;;;4.47;;
59681;SDS011;45548;39.530;-9.118;2022-08-11T10:09:27;11.27;;;7.82;;
59681;SDS011;45548;39.530;-9.118;2022-08-11T10:12:00;6.68;;;3.72;;
59681;SDS011;45548;39.530;-9.118;2022-08-11T10:14:28;10.85;;;5.18;;
59681;SDS011;45548;39.530;-9.118;2022-08-11T10:17:18;9.98;;;4.60;;
59681;SDS011;45548;39.530;-9.118;2022-08-11T10:19:46;10.48;;;4.28;;
59681;SDS011;45548;39.530;-9.118;2022-08-11T10:22:13;10.23;;;4.97;;
59681;SDS011;45548;39.530;-9.118;2022-08-11T10:24:59;11.23;;;5.30;;
59681;SDS011;45548;39.530;-9.118;2022-08-11T10:27:47;12.40;;;5.30;;
59681;SDS011;45548;39.530;-9.118;2022-08-11T10:30:24;10.20;;;5.55;;
59681;SDS011;45548;39.530;-9.118;2022-08-11T10:33:20;11.13;;;6.70;;
59681;SDS011;45548;39.530;-9.118;2022-08-11T10:36:04;9.05;;;4.97;;
59681;SDS011;45548;39.530;-9.118;2022-08-11T10:38:32;12.70;;;5.50;;
59681;SDS011;45548;39.530;-9.118;2022-08-11T10:40:59;9.38;;;3.70;;
59681;SDS011;45548;39.530;-9.118;2022-08-11T10:43:44;8.65;;;3.85;;
59681;SDS011;45548;39.530;-9.118;2022-08-11T10:46:10;15.00;;;9.38;;
59681;SDS011;45548;39.530;-9.118;2022-08-11T10:48:56;10.00;;;4.80;;
59681;SDS011;45548;39.530;-9.118;2022-08-11T10:51:26;11.18;;;4.60;;
59681;SDS011;45548;39.530;-9.118;2022-08-11T10:54:12;12.40;;;6.47;;
59681;SDS011;45548;39.530;-9.118;2022-08-11T10:56:58;11.32;;;5.35;;
59681;SDS011;45548;39.530;-9.118;2022-08-11T10:59:43;13.52;;;5.28;;
59681;SDS011;45548;39.530;-9.118;2022-08-11T11:02:11;12.55;;;4.55;;
59681;SDS011;45548;39.530;-9.118;2022-08-11T11:07:26;10.55;;;5.10;;
59681;SDS011;45548;39.530;-9.118;2022-08-11T11:10:03;9.68;;;7.20;;
59681;SDS011;45548;39.530;-9.118;2022-08-11T11:12:54;12.10;;;7.72;;
59681;SDS011;45548;39.530;-9.118;2022-08-11T11:15:40;11.93;;;5.13;;
59681;SDS011;45548;39.530;-9.118;2022-08-11T11:18:28;9.95;;;7.85;;
59681;SDS011;45548;39.530;-9.118;2022-08-11T11:23:36;11.15;;;5.05;;
59681;SDS011;45548;39.530;-9.118;2022-08-11T11:36:56;13.43;;;10.02;;
59681;SDS011;45548;39.530;-9.118;2022-08-11T11:39:26;14.45;;;7.30;;
59681;SDS011;45548;39.530;-9.118;2022-08-11T11:41:57;12.35;;;6.10;;
59681;SDS011;45548;39.530;-9.118;2022-08-11T11:44:27;15.10;;;13.18;;
59681;SDS011;45548;39.530;-9.118;2022-08-11T11:46:53;16.30;;;9.60;;
59681;SDS011;45548;39.530;-9.118;2022-08-11T11:49:21;11.82;;;7.47;;
59681;SDS011;45548;39.530;-9.118;2022-08-11T11:51:49;13.15;;;8.18;;
59681;SDS011;45548;39.530;-9.118;2022-08-11T11:54:17;22.10;;;19.95;;
59681;SDS011;45548;39.530;-9.118;2022-08-11T11:56:46;20.75;;;18.75;;
59681;SDS011;45548;39.530;-9.118;2022-08-11T11:59:12;10.75;;;7.15;;
59681;SDS011;45548;39.530;-9.118;2022-08-11T12:01:57;10.73;;;8.45;;
59681;SDS011;45548;39.530;-9.118;2022-08-11T12:04:24;14.05;;;8.65;;
59681;SDS011;45548;39.530;-9.118;2022-08-11T12:06:52;10.32;;;5.22;;
59681;SDS011;45548;39.530;-9.118;2022-08-11T12:09:38;10.18;;;5.10;;
59681;SDS011;45548;39.530;-9.118;2022-08-11T12:12:05;13.45;;;10.98;;
59681;SDS011;45548;39.530;-9.118;2022-08-11T12:14:50;16.10;;;14.50;;
59681;SDS011;45548;39.530;-9.118;2022-08-11T12:17:17;13.07;;;10.40;;
59681;SDS011;45548;39.530;-9.118;2022-08-11T12:19:42;12.57;;;11.02;;
59681;SDS011;45548;39.530;-9.118;2022-08-11T12:22:08;21.30;;;19.20;;
59681;SDS011;45548;39.530;-9.118;2022-08-11T12:24:53;31.23;;;21.58;;
59681;SDS011;45548;39.530;-9.118;2022-08-11T12:27:37;37.05;;;25.45;;
59681;SDS011;45548;39.530;-9.118;2022-08-11T12:30:04;42.72;;;36.60;;
59681;SDS011;45548;39.530;-9.118;2022-08-11T12:32:33;10.57;;;6.40;;
59681;SDS011;45548;39.530;-9.118;2022-08-11T12:35:00;13.00;;;9.13;;
59681;SDS011;45548;39.530;-9.118;2022-08-11T12:37:47;10.15;;;5.60;;
59681;SDS011;45548;39.530;-9.118;2022-08-11T12:40:17;12.35;;;8.23;;
59681;SDS011;45548;39.530;-9.118;2022-08-11T12:43:06;41.22;;;37.15;;
59681;SDS011;45548;39.530;-9.118;2022-08-11T12:45:57;40.47;;;36.67;;
59681;SDS011;45548;39.530;-9.118;2022-08-11T12:48:30;11.07;;;9.98;;
59681;SDS011;45548;39.530;-9.118;2022-08-11T12:51:18;19.92;;;18.17;;
59681;SDS011;45548;39.530;-9.118;2022-08-11T12:54:10;15.07;;;10.10;;
59681;SDS011;45548;39.530;-9.118;2022-08-11T12:56:43;9.52;;;6.20;;
59681;SDS011;45548;39.530;-9.118;2022-08-11T12:59:30;11.93;;;9.10;;
59681;SDS011;45548;39.530;-9.118;2022-08-11T13:02:15;12.45;;;9.63;;
59681;SDS011;45548;39.530;-9.118;2022-08-11T13:05:05;11.48;;;6.72;;
59681;SDS011;45548;39.530;-9.118;2022-08-11T13:07:32;11.13;;;5.80;;
59681;SDS011;45548;39.530;-9.118;2022-08-11T13:10:02;13.13;;;6.03;;
59681;SDS011;45548;39.530;-9.118;2022-08-11T13:12:29;9.27;;;7.03;;
59681;SDS011;45548;39.530;-9.118;2022-08-11T13:15:16;10.00;;;6.05;;
59681;SDS011;45548;39.530;-9.118;2022-08-11T13:17:44;11.02;;;6.20;;
59681;SDS011;45548;39.530;-9.118;2022-08-11T13:20:13;10.57;;;6.90;;
59681;SDS011;45548;39.530;-9.118;2022-08-11T13:22:44;12.15;;;5.90;;
59681;SDS011;45548;39.530;-9.118;2022-08-11T13:25:14;11.75;;;7.07;;
59681;SDS011;45548;39.530;-9.118;2022-08-11T13:27:45;10.63;;;8.80;;
59681;SDS011;45548;39.530;-9.118;2022-08-11T13:30:12;13.52;;;11.65;;
59681;SDS011;45548;39.530;-9.118;2022-08-11T13:32:58;12.35;;;8.68;;
59681;SDS011;45548;39.530;-9.118;2022-08-11T13:35:25;17.05;;;15.40;;
59681;SDS011;45548;39.530;-9.118;2022-08-11T13:37:56;11.00;;;5.20;;
59681;SDS011;45548;39.530;-9.118;2022-08-11T13:40:25;11.27;;;6.10;;
59681;SDS011;45548;39.530;-9.118;2022-08-11T13:42:52;14.10;;;11.88;;
59681;SDS011;45548;39.530;-9.118;2022-08-11T13:45:22;10.88;;;5.60;;
59681;SDS011;45548;39.530;-9.118;2022-08-11T13:47:54;14.65;;;8.93;;
59681;SDS011;45548;39.530;-9.118;2022-08-11T13:53:08;13.45;;;9.23;;
59681;SDS011;45548;39.530;-9.118;2022-08-11T13:55:37;14.43;;;8.73;;
59681;SDS011;45548;39.530;-9.118;2022-08-11T13:58:04;14.77;;;10.88;;
59681;SDS011;45548;39.530;-9.118;2022-08-11T14:00:33;13.38;;;11.95;;
59681;SDS011;45548;39.530;-9.118;2022-08-11T14:02:58;18.15;;;14.07;;
59681;SDS011;45548;39.530;-9.118;2022-08-11T14:05:29;13.55;;;12.13;;
59681;SDS011;45548;39.530;-9.118;2022-08-11T14:07:59;17.75;;;13.52;;
59681;SDS011;45548;39.530;-9.118;2022-08-11T14:10:27;12.05;;;6.05;;
59681;SDS011;45548;39.530;-9.118;2022-08-11T14:13:01;16.67;;;10.65;;
59681;SDS011;45548;39.530;-9.118;2022-08-11T14:15:55;12.10;;;5.78;;
59681;SDS011;45548;39.530;-9.118;2022-08-11T14:18:27;10.27;;;5.55;;
59681;SDS011;45548;39.530;-9.118;2022-08-11T14:21:02;15.68;;;8.93;;
59681;SDS011;45548;39.530;-9.118;2022-08-11T14:23:49;10.93;;;7.57;;
59681;SDS011;45548;39.530;-9.118;2022-08-11T14:26:19;12.90;;;11.25;;
59681;SDS011;45548;39.530;-9.118;2022-08-11T14:28:53;14.23;;;6.55;;
59681;SDS011;45548;39.530;-9.118;2022-08-11T14:31:22;17.52;;;10.60;;
59681;SDS011;45548;39.530;-9.118;2022-08-11T14:33:52;14.82;;;7.10;;
59681;SDS011;45548;39.530;-9.118;2022-08-11T14:36:23;13.57;;;5.78;;
59681;SDS011;45548;39.530;-9.118;2022-08-11T14:38:51;13.02;;;5.53;;
59681;SDS011;45548;39.530;-9.118;2022-08-11T14:41:18;13.48;;;6.80;;
59681;SDS011;45548;39.530;-9.118;2022-08-11T14:44:03;13.48;;;8.60;;
59681;SDS011;45548;39.530;-9.118;2022-08-11T14:46:48;14.88;;;9.07;;
59681;SDS011;45548;39.530;-9.118;2022-08-11T14:49:34;16.05;;;10.25;;
59681;SDS011;45548;39.530;-9.118;2022-08-11T14:52:10;12.70;;;6.03;;
59681;SDS011;45548;39.530;-9.118;2022-08-11T14:54:40;11.45;;;5.50;;
59681;SDS011;45548;39.530;-9.118;2022-08-11T14:57:26;9.80;;;5.15;;
59681;SDS011;45548;39.530;-9.118;2022-08-11T14:59:53;12.48;;;5.88;;
59681;SDS011;45548;39.530;-9.118;2022-08-11T15:02:22;11.38;;;5.18;;
59681;SDS011;45548;39.530;-9.118;2022-08-11T15:05:07;11.45;;;5.22;;
59681;SDS011;45548;39.530;-9.118;2022-08-11T15:07:33;11.98;;;5.78;;
59681;SDS011;45548;39.530;-9.118;2022-08-11T15:10:03;12.48;;;6.35;;
59681;SDS011;45548;39.530;-9.118;2022-08-11T15:12:31;14.93;;;6.97;;
59681;SDS011;45548;39.530;-9.118;2022-08-11T15:14:58;12.07;;;5.63;;
59681;SDS011;45548;39.530;-9.118;2022-08-11T15:17:44;13.82;;;6.18;;
59681;SDS011;45548;39.530;-9.118;2022-08-11T15:20:13;16.27;;;9.20;;
59681;SDS011;45548;39.530;-9.118;2022-08-11T15:23:00;12.07;;;5.72;;
59681;SDS011;45548;39.530;-9.118;2022-08-11T15:25:47;13.88;;;6.75;;
59681;SDS011;45548;39.530;-9.118;2022-08-11T15:28:19;16.20;;;7.60;;
59681;SDS011;45548;39.530;-9.118;2022-08-11T15:31:06;14.07;;;6.82;;
59681;SDS011;45548;39.530;-9.118;2022-08-11T15:33:51;13.70;;;5.65;;
59681;SDS011;45548;39.530;-9.118;2022-08-11T15:36:38;15.32;;;8.57;;
59681;SDS011;45548;39.530;-9.118;2022-08-11T15:39:30;14.25;;;7.05;;
59681;SDS011;45548;39.530;-9.118;2022-08-11T15:42:03;19.58;;;6.93;;
59681;SDS011;45548;39.530;-9.118;2022-08-11T15:44:56;11.15;;;5.35;;
59681;SDS011;45548;39.530;-9.118;2022-08-11T15:47:54;16.95;;;6.70;;
59681;SDS011;45548;39.530;-9.118;2022-08-11T15:50:22;14.45;;;6.30;;
59681;SDS011;45548;39.530;-9.118;2022-08-11T15:53:07;19.25;;;8.85;;
59681;SDS011;45548;39.530;-9.118;2022-08-11T15:55:36;15.80;;;8.32;;
59681;SDS011;45548;39.530;-9.118;2022-08-11T15:58:03;16.67;;;10.27;;
59681;SDS011;45548;39.530;-9.118;2022-08-11T16:00:51;13.38;;;5.00;;
59681;SDS011;45548;39.530;-9.118;2022-08-11T16:03:41;14.48;;;8.57;;
59681;SDS011;45548;39.530;-9.118;2022-08-11T16:06:59;18.17;;;6.35;;
59681;SDS011;45548;39.530;-9.118;2022-08-11T16:09:36;15.40;;;7.78;;
59681;SDS011;45548;39.530;-9.118;2022-08-11T16:12:03;15.80;;;8.90;;
59681;SDS011;45548;39.530;-9.118;2022-08-11T16:14:35;12.20;;;7.28;;
59681;SDS011;45548;39.530;-9.118;2022-08-11T16:17:23;14.68;;;7.32;;
59681;SDS011;45548;39.530;-9.118;2022-08-11T16:19:50;15.23;;;7.00;;
59681;SDS011;45548;39.530;-9.118;2022-08-11T16:22:22;12.05;;;4.97;;
59681;SDS011;45548;39.530;-9.118;2022-08-11T16:25:00;11.80;;;5.50;;
59681;SDS011;45548;39.530;-9.118;2022-08-11T16:27:30;14.48;;;7.60;;
59681;SDS011;45548;39.530;-9.118;2022-08-11T16:29:58;15.90;;;8.07;;
59681;SDS011;45548;39.530;-9.118;2022-08-11T16:32:25;15.20;;;5.80;;
59681;SDS011;45548;39.530;-9.118;2022-08-11T16:38:07;17.90;;;6.40;;
59681;SDS011;45548;39.530;-9.118;2022-08-11T16:40:53;14.05;;;5.72;;
59681;SDS011;45548;39.530;-9.118;2022-08-11T16:43:21;14.43;;;6.78;;
59681;SDS011;45548;39.530;-9.118;2022-08-11T16:46:07;15.25;;;6.95;;
59681;SDS011;45548;39.530;-9.118;2022-08-11T16:48:45;15.27;;;7.18;;
59681;SDS011;45548;39.530;-9.118;2022-08-11T16:51:12;14.07;;;6.72;;
59681;SDS011;45548;39.530;-9.118;2022-08-11T16:53:38;13.95;;;6.10;;
59681;SDS011;45548;39.530;-9.118;2022-08-11T16:56:08;12.13;;;6.38;;
59681;SDS011;45548;39.530;-9.118;2022-08-11T16:58:38;16.23;;;7.43;;
59681;SDS011;45548;39.530;-9.118;2022-08-11T17:01:23;17.40;;;6.85;;
59681;SDS011;45548;39.530;-9.118;2022-08-11T17:03:52;16.58;;;7.10;;
59681;SDS011;45548;39.530;-9.118;2022-08-11T17:06:43;13.43;;;6.05;;
59681;SDS011;45548;39.530;-9.118;2022-08-11T17:09:29;14.82;;;5.70;;
59681;SDS011;45548;39.530;-9.118;2022-08-11T17:12:17;14.93;;;5.40;;
59681;SDS011;45548;39.530;-9.118;2022-08-11T17:15:05;13.48;;;5.47;;
59681;SDS011;45548;39.530;-9.118;2022-08-11T17:17:55;20.02;;;6.25;;
59681;SDS011;45548;39.530;-9.118;2022-08-11T17:20:23;19.50;;;7.43;;
59681;SDS011;45548;39.530;-9.118;2022-08-11T17:22:51;16.48;;;7.20;;
59681;SDS011;45548;39.530;-9.118;2022-08-11T17:25:36;19.05;;;7.03;;
59681;SDS011;45548;39.530;-9.118;2022-08-11T17:28:03;20.23;;;7.13;;
59681;SDS011;45548;39.530;-9.118;2022-08-11T17:30:30;14.35;;;6.25;;
59681;SDS011;45548;39.530;-9.118;2022-08-11T17:33:16;14.40;;;6.22;;
59681;SDS011;45548;39.530;-9.118;2022-08-11T17:36:02;16.42;;;6.45;;
59681;SDS011;45548;39.530;-9.118;2022-08-11T17:38:29;17.35;;;7.35;;
59681;SDS011;45548;39.530;-9.118;2022-08-11T17:40:59;13.73;;;6.00;;
59681;SDS011;45548;39.530;-9.118;2022-08-11T17:43:45;16.10;;;5.88;;
59681;SDS011;45548;39.530;-9.118;2022-08-11T17:46:33;14.48;;;6.07;;
59681;SDS011;45548;39.530;-9.118;2022-08-11T17:49:19;16.35;;;7.03;;
59681;SDS011;45548;39.530;-9.118;2022-08-11T17:51:46;13.77;;;7.30;;
59681;SDS011;45548;39.530;-9.118;2022-08-11T17:54:32;18.13;;;7.63;;
59681;SDS011;45548;39.530;-9.118;2022-08-11T17:57:19;15.60;;;6.80;;
59681;SDS011;45548;39.530;-9.118;2022-08-11T18:00:05;16.48;;;7.25;;
59681;SDS011;45548;39.530;-9.118;2022-08-11T18:02:35;18.33;;;7.28;;
59681;SDS011;45548;39.530;-9.118;2022-08-11T18:05:32;17.77;;;7.60;;
59681;SDS011;45548;39.530;-9.118;2022-08-11T18:08:02;16.40;;;5.88;;
59681;SDS011;45548;39.530;-9.118;2022-08-11T18:10:49;19.85;;;8.95;;
59681;SDS011;45548;39.530;-9.118;2022-08-11T18:13:35;18.63;;;7.43;;
59681;SDS011;45548;39.530;-9.118;2022-08-11T18:16:21;15.20;;;7.50;;
59681;SDS011;45548;39.530;-9.118;2022-08-11T18:19:05;19.10;;;7.68;;
59681;SDS011;45548;39.530;-9.118;2022-08-11T18:21:50;19.45;;;8.82;;
59681;SDS011;45548;39.530;-9.118;2022-08-11T18:25:38;17.98;;;8.45;;
59681;SDS011;45548;39.530;-9.118;2022-08-11T18:29:24;17.33;;;7.60;;
59681;SDS011;45548;39.530;-9.118;2022-08-11T18:33:07;14.07;;;6.82;;
59681;SDS011;45548;39.530;-9.118;2022-08-11T18:40:44;17.73;;;8.48;;
59681;SDS011;45548;39.530;-9.118;2022-08-11T18:44:29;17.65;;;7.60;;
59681;SDS011;45548;39.530;-9.118;2022-08-11T18:48:14;20.08;;;8.90;;
59681;SDS011;45548;39.530;-9.118;2022-08-11T18:52:00;16.88;;;8.00;;
59681;SDS011;45548;39.530;-9.118;2022-08-11T18:55:44;15.55;;;7.88;;
59681;SDS011;45548;39.530;-9.118;2022-08-11T18:59:30;17.00;;;10.13;;
59681;SDS011;45548;39.530;-9.118;2022-08-11T19:03:16;20.45;;;10.80;;
59681;SDS011;45548;39.530;-9.118;2022-08-11T19:06:59;18.63;;;9.73;;
59681;SDS011;45548;39.530;-9.118;2022-08-11T19:10:45;19.30;;;10.27;;
59681;SDS011;45548;39.530;-9.118;2022-08-11T19:14:29;22.52;;;11.90;;
59681;SDS011;45548;39.530;-9.118;2022-08-11T19:18:14;20.38;;;11.35;;
59681;SDS011;45548;39.530;-9.118;2022-08-11T19:21:59;16.85;;;9.35;;
59681;SDS011;45548;39.530;-9.118;2022-08-11T19:25:42;22.15;;;11.27;;
59681;SDS011;45548;39.530;-9.118;2022-08-11T19:29:25;18.92;;;10.30;;
59681;SDS011;45548;39.530;-9.118;2022-08-11T19:33:09;20.52;;;11.40;;
59681;SDS011;45548;39.530;-9.118;2022-08-11T19:36:52;21.08;;;11.38;;
59681;SDS011;45548;39.530;-9.118;2022-08-11T19:40:36;22.27;;;11.30;;
59681;SDS011;45548;39.530;-9.118;2022-08-11T19:44:20;22.33;;;12.95;;
59681;SDS011;45548;39.530;-9.118;2022-08-11T19:48:03;21.33;;;12.77;;
59681;SDS011;45548;39.530;-9.118;2022-08-11T19:51:46;24.05;;;16.60;;
59681;SDS011;45548;39.530;-9.118;2022-08-11T19:55:30;36.88;;;32.90;;
59681;SDS011;45548;39.530;-9.118;2022-08-11T19:59:13;24.48;;;15.35;;
59681;SDS011;45548;39.530;-9.118;2022-08-11T20:02:59;25.45;;;16.05;;
59681;SDS011;45548;39.530;-9.118;2022-08-11T20:06:42;29.45;;;16.52;;
59681;SDS011;45548;39.530;-9.118;2022-08-11T20:10:26;22.20;;;13.23;;
59681;SDS011;45548;39.530;-9.118;2022-08-11T20:14:15;21.30;;;12.73;;
59681;SDS011;45548;39.530;-9.118;2022-08-11T20:18:00;25.45;;;15.77;;
59681;SDS011;45548;39.530;-9.118;2022-08-11T20:21:46;27.00;;;15.55;;
59681;SDS011;45548;39.530;-9.118;2022-08-11T20:25:31;28.33;;;18.55;;
59681;SDS011;45548;39.530;-9.118;2022-08-11T20:29:16;31.92;;;17.90;;
59681;SDS011;45548;39.530;-9.118;2022-08-11T20:32:59;24.67;;;16.50;;
59681;SDS011;45548;39.530;-9.118;2022-08-11T20:36:43;22.35;;;15.40;;
59681;SDS011;45548;39.530;-9.118;2022-08-11T20:40:27;27.60;;;16.30;;
59681;SDS011;45548;39.530;-9.118;2022-08-11T20:44:11;25.15;;;15.90;;
59681;SDS011;45548;39.530;-9.118;2022-08-11T20:47:55;28.60;;;16.75;;
59681;SDS011;45548;39.530;-9.118;2022-08-11T20:51:39;27.80;;;15.82;;
59681;SDS011;45548;39.530;-9.118;2022-08-11T21:02:49;25.75;;;16.70;;
59681;SDS011;45548;39.530;-9.118;2022-08-11T21:06:32;32.10;;;19.25;;
59681;SDS011;45548;39.530;-9.118;2022-08-11T21:10:18;20.55;;;13.43;;
59681;SDS011;45548;39.530;-9.118;2022-08-11T21:14:02;21.95;;;15.85;;
59681;SDS011;45548;39.530;-9.118;2022-08-11T21:17:48;27.45;;;16.20;;
59681;SDS011;45548;39.530;-9.118;2022-08-11T21:21:34;17.25;;;10.25;;
59681;SDS011;45548;39.530;-9.118;2022-08-11T21:25:21;12.23;;;9.98;;
59681;SDS011;45548;39.530;-9.118;2022-08-11T21:29:06;16.35;;;10.55;;
59681;SDS011;45548;39.530;-9.118;2022-08-11T21:32:50;18.20;;;9.73;;
59681;SDS011;45548;39.530;-9.118;2022-08-11T21:36:34;26.77;;;16.42;;
59681;SDS011;45548;39.530;-9.118;2022-08-11T21:40:18;22.05;;;14.80;;
59681;SDS011;45548;39.530;-9.118;2022-08-11T21:44:03;18.92;;;12.27;;
59681;SDS011;45548;39.530;-9.118;2022-08-11T21:47:49;21.23;;;14.45;;
59681;SDS011;45548;39.530;-9.118;2022-08-11T21:51:34;18.48;;;12.95;;
59681;SDS011;45548;39.530;-9.118;2022-08-11T21:55:20;18.17;;;12.00;;
59681;SDS011;45548;39.530;-9.118;2022-08-11T21:59:05;18.48;;;10.43;;
59681;SDS011;45548;39.530;-9.118;2022-08-11T22:02:48;25.60;;;13.70;;
59681;SDS011;45548;39.530;-9.118;2022-08-11T22:06:31;17.02;;;11.45;;
59681;SDS011;45548;39.530;-9.118;2022-08-11T22:10:14;15.45;;;9.82;;
59681;SDS011;45548;39.530;-9.118;2022-08-11T22:14:00;17.35;;;10.95;;
59681;SDS011;45548;39.530;-9.118;2022-08-11T22:21:25;19.95;;;13.13;;
59681;SDS011;45548;39.530;-9.118;2022-08-11T22:25:10;17.90;;;10.82;;
59681;SDS011;45548;39.530;-9.118;2022-08-11T22:28:53;18.95;;;11.70;;
59681;SDS011;45548;39.530;-9.118;2022-08-11T22:32:36;16.88;;;11.80;;
59681;SDS011;45548;39.530;-9.118;2022-08-11T22:36:19;14.45;;;10.45;;
59681;SDS011;45548;39.530;-9.118;2022-08-11T22:40:02;25.38;;;15.10;;
59681;SDS011;45548;39.530;-9.118;2022-08-11T22:43:45;15.70;;;9.47;;
59681;SDS011;45548;39.530;-9.118;2022-08-11T22:47:27;15.10;;;10.15;;
59681;SDS011;45548;39.530;-9.118;2022-08-11T22:51:11;20.45;;;13.98;;
59681;SDS011;45548;39.530;-9.118;2022-08-11T22:54:56;18.00;;;11.40;;
59681;SDS011;45548;39.530;-9.118;2022-08-11T22:58:38;18.47;;;12.27;;
59681;SDS011;45548;39.530;-9.118;2022-08-11T23:02:24;16.65;;;11.82;;
59681;SDS011;45548;39.530;-9.118;2022-08-11T23:06:07;18.88;;;13.95;;
59681;SDS011;45548;39.530;-9.118;2022-08-11T23:09:50;31.02;;;20.05;;
59681;SDS011;45548;39.530;-9.118;2022-08-11T23:13:33;24.07;;;16.20;;
59681;SDS011;45548;39.530;-9.118;2022-08-11T23:17:17;22.15;;;15.45;;
59681;SDS011;45548;39.530;-9.118;2022-08-11T23:21:00;27.42;;;17.02;;
59681;SDS011;45548;39.530;-9.118;2022-08-11T23:24:44;21.30;;;13.88;;
59681;SDS011;45548;39.530;-9.118;2022-08-11T23:32:11;18.70;;;13.13;;
59681;SDS011;45548;39.530;-9.118;2022-08-11T23:35:55;17.63;;;13.80;;
59681;SDS011;45548;39.530;-9.118;2022-08-11T23:39:38;21.67;;;15.45;;
59681;SDS011;45548;39.530;-9.118;2022-08-11T23:43:21;18.60;;;13.43;;
59681;SDS011;45548;39.530;-9.118;2022-08-11T23:47:04;15.60;;;12.60;;
59681;SDS011;45548;39.530;-9.118;2022-08-11T23:50:48;21.30;;;17.45;;
